PIMOHWEATHER Historical Data
 
Daily Summary for April 23, 2019 Units:  Metric    English   Both
« Previous Day
Next Day »
Daily Weekly Monthly Yearly Custom
  Current: High: Low: Average:
Temperature: 32.6 °C 38.3 °C 27.6 °C 32.4 °C
Dew Point: 20.9 °C 23 °C 18.2 °C 20.3 °C
Humidity: 50% 62% 33% 50%
Wind Speed: 2.1km/h 15.4km/h 0km/h 4.2km/h
Wind Gust: 4km/h 24.1km/h - -
WindSSE - - SE
Pressure: 1006 hPa 1010 hPa 1004.6 hPa -
Precipitation: 0 mm      
Historical Graphs
 
 
Tabular Data for April 23, 2019
Time Temp. Dew Point Pressure Wind Wind Speed Wind Gust Humidity Rain Rate (Hourly) Solar Radiation Conditions
00:04 29.1 °C 18.9 °C 1008.4 hPa NE 2.1 km/h 4 km/h 54% 0 mm 0.00 W/m2
00:09 29.1 °C 18.6 °C 1008.4 hPa SSE 2.6 km/h 4 km/h 53% 0 mm 0.00 W/m2
00:14 29.1 °C 18.6 °C 1008.4 hPa SE 2.6 km/h 4 km/h 53% 0 mm 0.00 W/m2
00:19 29.1 °C 18.6 °C 1008.4 hPa Calm     53% 0 mm 0.00 W/m2
00:24 29.2 °C 18.7 °C 1008.4 hPa Calm     53% 0 mm 0.00 W/m2
00:29 29.3 °C 18.8 °C 1008.4 hPa SE 2.1 km/h 4 km/h 53% 0 mm 0.00 W/m2
00:34 29.2 °C 18.7 °C 1008.4 hPa Calm     53% 0 mm 0.00 W/m2
00:39 29.2 °C 19 °C 1008.4 hPa Calm     54% 0 mm 0.00 W/m2
00:44 29.2 °C 19.3 °C 1008.4 hPa Calm     55% 0 mm 0.00 W/m2
00:49 29.4 °C 19.4 °C 1008.4 hPa Calm     55% 0 mm 0.00 W/m2
00:54 29.2 °C 19.3 °C 1008.4 hPa SE 5 km/h 7.9 km/h 55% 0 mm 0.00 W/m2
00:59 29.2 °C 19.5 °C 1008.4 hPa ENE 2.9 km/h 4 km/h 56% 0 mm 0.00 W/m2
01:04 29.2 °C 19.5 °C 1008.4 hPa East 2.9 km/h 4 km/h 56% 0 mm 0.00 W/m2
01:09 29.2 °C 19.8 °C 1008.4 hPa Calm     57% 0 mm 0.00 W/m2
01:14 29.1 °C 19.7 °C 1008.4 hPa SSE 1.1 km/h 4 km/h 57% 0 mm 0.00 W/m2
01:19 29.2 °C 19.8 °C 1008.4 hPa Calm     57% 0 mm 0.00 W/m2
01:24 29.2 °C 19.8 °C 1008.4 hPa Calm     57% 0 mm 0.00 W/m2
01:29 29.2 °C 20.1 °C 1008.4 hPa East 0.3 km/h 4 km/h 58% 0 mm 0.00 W/m2
01:34 29.2 °C 20.1 °C 1008.4 hPa Calm     58% 0 mm 0.00 W/m2
01:39 29.2 °C 20.1 °C 1008.4 hPa ENE 1.1 km/h 4 km/h 58% 0 mm 0.00 W/m2
01:44 29.1 °C 20 °C 1008 hPa Calm     58% 0 mm 0.00 W/m2
01:49 29.1 °C 20 °C 1008.4 hPa East 2.9 km/h 4 km/h 58% 0 mm 0.00 W/m2
01:54 29 °C 20.2 °C 1008 hPa South 1.4 km/h 4 km/h 59% 0 mm 0.00 W/m2
01:59 28.9 °C 20.4 °C 1008 hPa SE 3.5 km/h 4 km/h 60% 0 mm 0.00 W/m2
02:04 29 °C 20.2 °C 1008 hPa Calm     59% 0 mm 0.00 W/m2
02:09 29 °C 20.2 °C 1007.7 hPa Calm     59% 0 mm 0.00 W/m2
02:14 28.9 °C 20.1 °C 1008 hPa Calm     59% 0 mm 0.00 W/m2
02:19 28.8 °C 20.3 °C 1008 hPa Calm     60% 0 mm 0.00 W/m2
02:24 28.8 °C 20.3 °C 1008 hPa NNW 0.3 km/h 4 km/h 60% 0 mm 0.00 W/m2
02:29 28.8 °C 20.3 °C 1008 hPa Calm     60% 0 mm 0.00 W/m2
02:34 28.7 °C 20.2 °C 1008 hPa Calm     60% 0 mm 0.00 W/m2
02:39 28.6 °C 20.4 °C 1008 hPa Calm     61% 0 mm 0.00 W/m2
02:44 28.8 °C 20.3 °C 1008 hPa ESE 2.6 km/h 4 km/h 60% 0 mm 0.00 W/m2
02:49 28.7 °C 20.5 °C 1008 hPa SSW 0.3 km/h 4 km/h 61% 0 mm 0.00 W/m2
02:54 28.6 °C 20.4 °C 1007.7 hPa Calm     61% 0 mm 0.00 W/m2
02:59 28.7 °C 20.5 °C 1008 hPa Calm     61% 0 mm 0.00 W/m2
03:04 28.6 °C 20.6 °C 1008 hPa Calm     62% 0 mm 0.00 W/m2
03:09 28.4 °C 20.4 °C 1008 hPa Calm     62% 0 mm 0.00 W/m2
03:14 28.4 °C 20.4 °C 1007.7 hPa Calm     62% 0 mm 0.00 W/m2
03:19 28.4 °C 20.4 °C 1008 hPa Calm     62% 0 mm 0.00 W/m2
03:24 28.3 °C 20.3 °C 1007.7 hPa North 2.1 km/h 4 km/h 62% 0 mm 0.00 W/m2
03:29 28.3 °C 20.3 °C 1007.7 hPa ENE 2.6 km/h 4 km/h 62% 0 mm 0.00 W/m2
03:34 28.3 °C 20.1 °C 1007.7 hPa Calm     61% 0 mm 0.00 W/m2
03:39 28.2 °C 20 °C 1007.7 hPa Calm     61% 0 mm 0.00 W/m2
03:44 28.2 °C 20 °C 1007.7 hPa Calm     61% 0 mm 0.00 W/m2
03:49 28.3 °C 20.1 °C 1007.7 hPa Calm     61% 0 mm 0.00 W/m2
03:54 28.2 °C 20 °C 1008 hPa NE 1.1 km/h 4 km/h 61% 0 mm 0.00 W/m2
03:59 28.2 °C 19.7 °C 1007.7 hPa Calm     60% 0 mm 0.00 W/m2
04:04 28.1 °C 19.9 °C 1007.7 hPa Calm     61% 0 mm 0.00 W/m2
04:09 28.2 °C 20 °C 1007.7 hPa Calm     61% 0 mm 0.00 W/m2
04:14 28.1 °C 19.9 °C 1008 hPa Calm     61% 0 mm 0.00 W/m2
04:19 28.2 °C 20 °C 1008 hPa Calm     61% 0 mm 0.00 W/m2
04:24 28.1 °C 19.9 °C 1008 hPa ESE 1.1 km/h 4 km/h 61% 0 mm 0.00 W/m2
04:29 28.1 °C 19.9 °C 1008 hPa SW 4 km/h 4 km/h 61% 0 mm 0.00 W/m2
04:34 28 °C 19.8 °C 1008 hPa SE 0.3 km/h 4 km/h 61% 0 mm 0.00 W/m2
04:39 28 °C 19.8 °C 1008.4 hPa SSE 1.4 km/h 4 km/h 61% 0 mm 0.00 W/m2
04:44 27.9 °C 19.7 °C 1008.4 hPa NE 1.1 km/h 4 km/h 61% 0 mm 0.00 W/m2
04:49 27.9 °C 19.7 °C 1008.4 hPa Calm     61% 0 mm 0.00 W/m2
04:54 27.8 °C 19.6 °C 1008.7 hPa Calm     61% 0 mm 0.00 W/m2
04:59 27.9 °C 19.7 °C 1008.4 hPa NE 1.4 km/h 4 km/h 61% 0 mm 0.00 W/m2
05:04 27.9 °C 20 °C 1008.4 hPa Calm     62% 0 mm 0.00 W/m2
05:09 27.9 °C 20 °C 1008.7 hPa Calm     62% 0 mm 0.00 W/m2
05:14 27.9 °C 20 °C 1008.7 hPa Calm     62% 0 mm 0.00 W/m2
05:19 27.8 °C 19.9 °C 1009 hPa Calm     62% 0 mm 0.00 W/m2
05:24 27.9 °C 20 °C 1008.7 hPa NNE 4.7 km/h 7.9 km/h 62% 0 mm 0.00 W/m2
05:29 27.9 °C 20 °C 1008.7 hPa Calm     62% 0 mm 0.00 W/m2
05:34 27.7 °C 19.8 °C 1009 hPa ENE 4 km/h 7.9 km/h 62% 0 mm 0.04 W/m2
05:39 27.8 °C 19.9 °C 1009 hPa Calm     62% 0 mm 3.21 W/m2
05:44 27.7 °C 19.8 °C 1009 hPa NNE 0.3 km/h 4 km/h 62% 0 mm 7.13 W/m2
05:49 27.7 °C 19.5 °C 1009.4 hPa Calm     61% 0 mm 12.65 W/m2
05:54 27.6 °C 19.7 °C 1009 hPa Calm     62% 0 mm 21.19 W/m2
05:59 27.8 °C 19.9 °C 1009 hPa Calm     62% 0 mm 27.70 W/m2
06:04 28 °C 20.1 °C 1009.4 hPa Calm     62% 0 mm 36.23 W/m2
06:09 28 °C 19.8 °C 1009 hPa Calm     61% 0 mm 43.41 W/m2
06:14 28.3 °C 20.1 °C 1009 hPa Calm     61% 0 mm 49.75 W/m2
06:19 28.4 °C 19.9 °C 1009.4 hPa Calm     60% 0 mm 56.96 W/m2
06:24 28.4 °C 19.9 °C 1009.4 hPa Calm     60% 0 mm 64.29 W/m2
06:29 28.6 °C 20.1 °C 1009.4 hPa Calm     60% 0 mm 125.24 W/m2
06:34 28.7 °C 20.2 °C 1009.4 hPa NE 3.5 km/h 4 km/h 60% 0 mm 166.35 W/m2
06:39 29.3 °C 20.5 °C 1009.4 hPa Calm     59% 0 mm 167.18 W/m2
06:44 29.9 °C 20.5 °C 1009.7 hPa Calm     57% 0 mm 187.29 W/m2
06:49 30.2 °C 20.8 °C 1009.7 hPa NNE 0.3 km/h 4 km/h 57% 0 mm 206.57 W/m2
06:54 30.2 °C 20.8 °C 1009.7 hPa East 5.5 km/h 7.9 km/h 57% 0 mm 230.62 W/m2
06:59 30.1 °C 21 °C 1009.7 hPa SSE 1.1 km/h 4 km/h 58% 0 mm 254.26 W/m2
07:04 30.4 °C 21.2 °C 1009.4 hPa SSE 2.9 km/h 4 km/h 58% 0 mm 270.65 W/m2
07:09 30.5 °C 21.3 °C 1009.4 hPa SW 1.1 km/h 4 km/h 58% 0 mm 287.61 W/m2
07:14 30.7 °C 21.2 °C 1009.7 hPa Calm     57% 0 mm 293.92 W/m2
07:19 30.7 °C 21.2 °C 1009.7 hPa SSE 2.9 km/h 4 km/h 57% 0 mm 304.78 W/m2
07:24 31.3 °C 21.5 °C 1009.7 hPa SSW 4 km/h 4 km/h 56% 0 mm 313.81 W/m2
07:29 31.3 °C 21.5 °C 1009.7 hPa ESE 4.7 km/h 7.9 km/h 56% 0 mm 327.02 W/m2
07:34 31.6 °C 21.5 °C 1009.7 hPa East 5 km/h 7.9 km/h 55% 0 mm 338.16 W/m2
07:39 31.4 °C 21.3 °C 1010 hPa ESE 1.1 km/h 4 km/h 55% 0 mm 349.44 W/m2
07:44 31.8 °C 21.4 °C 1009.7 hPa ESE 0.3 km/h 4 km/h 54% 0 mm 360.42 W/m2
07:49 32.1 °C 21.6 °C 1009.7 hPa North 2.6 km/h 7.9 km/h 54% 0 mm 372.78 W/m2
07:54 31.5 °C 21.1 °C 1009.7 hPa NNE 5 km/h 7.9 km/h 54% 0 mm 384.55 W/m2
07:59 31.8 °C 21.4 °C 1010 hPa North 3.5 km/h 7.9 km/h 54% 0 mm 380.39 W/m2
08:04 32.1 °C 21.3 °C 1010 hPa ENE 2.9 km/h 4 km/h 53% 0 mm 391.20 W/m2
08:09 32.5 °C 21.4 °C 1009.7 hPa South 2.9 km/h 4 km/h 52% 0 mm 406.52 W/m2
08:14 32.8 °C 21.7 °C 1009.7 hPa South 2.9 km/h 4 km/h 52% 0 mm 413.37 W/m2
08:19 32.6 °C 21.5 °C 1010 hPa SSW 1.1 km/h 4 km/h 52% 0 mm 417.68 W/m2
08:24 32.8 °C 21.4 °C 1010 hPa ESE 6.4 km/h 7.9 km/h 51% 0 mm 424.65 W/m2
08:29 32.3 °C 21.2 °C 1010 hPa East 8.7 km/h 16.3 km/h 52% 0 mm 436.12 W/m2
08:34 32.3 °C 21.5 °C 1009.7 hPa SSW 10.5 km/h 16.3 km/h 53% 0 mm 440.53 W/m2
08:39 32.8 °C 21.4 °C 1010 hPa NNE 4 km/h 4 km/h 51% 0 mm 449.24 W/m2
08:44 32.7 °C 21.6 °C 1009.7 hPa SSE 1.1 km/h 4 km/h 52% 0 mm 450.19 W/m2
08:49 32.9 °C 21.1 °C 1010 hPa NNE 6.1 km/h 7.9 km/h 50% 0 mm 501.35 W/m2
08:54 32.2 °C 21.1 °C 1009.7 hPa SSE 1.1 km/h 4 km/h 52% 0 mm 227.79 W/m2
08:59 32.1 °C 21.3 °C 1010 hPa ESE 3.5 km/h 4 km/h 53% 0 mm 229.99 W/m2
09:04 32.5 °C 21.4 °C 1009.7 hPa NE 4.7 km/h 7.9 km/h 52% 0 mm 240.80 W/m2
09:09 32.1 °C 21.3 °C 1009.7 hPa NE 4 km/h 7.9 km/h 53% 0 mm 586.25 W/m2
09:14 33.1 °C 21.6 °C 1009.7 hPa NNW 9 km/h 12.2 km/h 51% 0 mm 377.75 W/m2
09:19 33.4 °C 21.9 °C 1009.7 hPa ENE 5 km/h 7.9 km/h 51% 0 mm 581.73 W/m2
09:24 33.3 °C 21.8 °C 1009.7 hPa NE 3.5 km/h 4 km/h 51% 0 mm 572.99 W/m2
09:29 32.8 °C 21.7 °C 1009.7 hPa NNE 2.9 km/h 4 km/h 52% 0 mm 202.58 W/m2
09:34 32.9 °C 21.8 °C 1009.7 hPa NE 2.9 km/h 4 km/h 52% 0 mm 192.41 W/m2
09:39 32.8 °C 21.7 °C 1009.7 hPa NE 2.6 km/h 4 km/h 52% 0 mm 242.64 W/m2
09:44 33.7 °C 21.9 °C 1009.4 hPa NNE 5.5 km/h 7.9 km/h 50% 0 mm 196.64 W/m2
09:49 33.7 °C 21.9 °C 1009.4 hPa WSW 2.6 km/h 4 km/h 50% 0 mm 597.63 W/m2
09:54 34.2 °C 22 °C 1009 hPa SSE 5.5 km/h 7.9 km/h 49% 0 mm 600.84 W/m2
09:59 34 °C 21.8 °C 1009.4 hPa South 3.5 km/h 4 km/h 49% 0 mm 598.19 W/m2
10:04 33.7 °C 21.5 °C 1009 hPa NNE 6.1 km/h 7.9 km/h 49% 0 mm 190.40 W/m2
10:09 32.6 °C 21.5 °C 1009 hPa SE 10.5 km/h 12.2 km/h 52% 0 mm 483.86 W/m2
10:14 33.8 °C 21.6 °C 1009 hPa NNE 1.4 km/h 4 km/h 49% 0 mm 605.19 W/m2
10:19 34 °C 21.1 °C 1009 hPa ENE 6.1 km/h 7.9 km/h 47% 0 mm 657.80 W/m2
10:24 33.7 °C 21.2 °C 1009 hPa East 9.7 km/h 12.2 km/h 48% 0 mm 653.03 W/m2
10:29 34.4 °C 21.8 °C 1009 hPa ESE 3.5 km/h 4 km/h 48% 0 mm 646.18 W/m2
10:34 35 °C 21.7 °C 1009 hPa Calm     46% 0 mm 649.11 W/m2
10:39 34.5 °C 21.2 °C 1008.7 hPa ENE 4.7 km/h 7.9 km/h 46% 0 mm 299.72 W/m2
10:44 34.3 °C 21 °C 1008.7 hPa NNE 5 km/h 7.9 km/h 46% 0 mm 658.02 W/m2
10:49 34.8 °C 21.5 °C 1008.4 hPa SSW 7.9 km/h 12.2 km/h 46% 0 mm 657.14 W/m2
10:54 34.5 °C 20.9 °C 1008.7 hPa SW 5.5 km/h 7.9 km/h 45% 0 mm 674.88 W/m2
10:59 35.2 °C 21.5 °C 1008.4 hPa SW 6.4 km/h 7.9 km/h 45% 0 mm 717.82 W/m2
11:04 35.7 °C 21.6 °C 1008.4 hPa East 7.2 km/h 7.9 km/h 44% 0 mm 726.01 W/m2
11:09 35.3 °C 21.6 °C 1008.4 hPa SE 2.6 km/h 4 km/h 45% 0 mm 459.44 W/m2
11:14 34.4 °C 21.1 °C 1008 hPa SE 15.1 km/h 20.1 km/h 46% 0 mm 727.48 W/m2
11:19 34.9 °C 21.6 °C 1008 hPa ESE 7.6 km/h 12.2 km/h 46% 0 mm 277.11 W/m2
11:24 34.2 °C 23 °C 1008 hPa SSE 5 km/h 7.9 km/h 52% 0 mm 712.26 W/m2
11:29 34.6 °C 21.7 °C 1008 hPa NNE 4.7 km/h 7.9 km/h 47% 0 mm 704.65 W/m2
11:34 35.8 °C 21.3 °C 1007.7 hPa South 2.9 km/h 4 km/h 43% 0 mm 740.74 W/m2
11:39 36.2 °C 21.7 °C 1007.7 hPa NNW 6.1 km/h 7.9 km/h 43% 0 mm 715.37 W/m2
11:44 35.1 °C 21.4 °C 1007.7 hPa East 9 km/h 12.2 km/h 45% 0 mm 541.43 W/m2
11:49 34.4 °C 21.5 °C 1007.7 hPa ENE 4.7 km/h 7.9 km/h 47% 0 mm 277.04 W/m2
11:54 35.5 °C 21.8 °C 1007.3 hPa SSE 7.6 km/h 12.2 km/h 45% 0 mm 667.19 W/m2
11:59 35.8 °C 21.3 °C 1007.3 hPa West 6.1 km/h 7.9 km/h 43% 0 mm 666.56 W/m2
12:04 35.9 °C 21.4 °C 1007.7 hPa NNE 10.5 km/h 12.2 km/h 43% 0 mm 666.34 W/m2
12:09 36 °C 21.1 °C 1007.3 hPa NE 6.4 km/h 7.9 km/h 42% 0 mm 671.11 W/m2
12:14 35.9 °C 21 °C 1007.3 hPa ENE 13 km/h 16.3 km/h 42% 0 mm 664.01 W/m2
12:19 36.1 °C 20.4 °C 1007 hPa West 8.7 km/h 12.2 km/h 40% 0 mm 669.03 W/m2
12:24 35.3 °C 19.7 °C 1007 hPa NW 10.1 km/h 12.2 km/h 40% 0 mm 669.27 W/m2
12:29 35.9 °C 19.8 °C 1007 hPa SSE 3.5 km/h 4 km/h 39% 0 mm 667.19 W/m2
12:34 35.4 °C 19.8 °C 1006.7 hPa SSE 3.5 km/h 7.9 km/h 40% 0 mm 675.00 W/m2
12:39 36.1 °C 19.6 °C 1006.7 hPa ESE 7.6 km/h 12.2 km/h 38% 0 mm 672.80 W/m2
12:44 36.2 °C 19.2 °C 1006.7 hPa ESE 15.4 km/h 20.1 km/h 37% 0 mm 683.63 W/m2
12:49 36.2 °C 19.2 °C 1006.7 hPa South 7.9 km/h 12.2 km/h 37% 0 mm 676.22 W/m2
12:54 36 °C 19.1 °C 1006.3 hPa ENE 12.2 km/h 16.3 km/h 37% 0 mm 672.97 W/m2
12:59 36.5 °C 19.1 °C 1006 hPa SSW 5 km/h 7.9 km/h 36% 0 mm 677.47 W/m2
13:04 36.1 °C 18.7 °C 1006 hPa SE 10.1 km/h 12.2 km/h 36% 0 mm 682.56 W/m2
13:09 36.2 °C 19.2 °C 1006 hPa SSE 9 km/h 12.2 km/h 37% 0 mm 683.63 W/m2
13:14 36.9 °C 19.4 °C 1006 hPa SSW 7.6 km/h 12.2 km/h 36% 0 mm 680.18 W/m2
13:19 36.9 °C 19.4 °C 1006 hPa NE 7.9 km/h 16.3 km/h 36% 0 mm 681.87 W/m2
13:24 36.7 °C 19.7 °C 1005.6 hPa SE 4.7 km/h 7.9 km/h 37% 0 mm 682.51 W/m2
13:29 36.5 °C 19.5 °C 1005.6 hPa SSE 11.6 km/h 16.3 km/h 37% 0 mm 677.37 W/m2
13:34 36.7 °C 19.2 °C 1005.6 hPa SSW 6.1 km/h 7.9 km/h 36% 0 mm 675.24 W/m2
13:39 37.1 °C 19.6 °C 1005.6 hPa SSE 7.6 km/h 12.2 km/h 36% 0 mm 678.69 W/m2
13:44 37.4 °C 19.4 °C 1005.6 hPa ENE 12.2 km/h 16.3 km/h 35% 0 mm 680.94 W/m2
13:49 37.5 °C 19.5 °C 1005 hPa SSE 12.2 km/h 16.3 km/h 35% 0 mm 672.89 W/m2
13:54 37.8 °C 19.7 °C 1005.6 hPa East 9.7 km/h 16.3 km/h 35% 0 mm 680.53 W/m2
13:59 36.4 °C 19.4 °C 1005.3 hPa ESE 12.2 km/h 16.3 km/h 37% 0 mm 673.41 W/m2
14:04 36.5 °C 19.5 °C 1005.3 hPa North 2.9 km/h 4 km/h 37% 0 mm 666.61 W/m2
14:09 36.6 °C 19.2 °C 1005 hPa NW 2.9 km/h 7.9 km/h 36% 0 mm 659.12 W/m2
14:14 35.9 °C 19 °C 1005 hPa SSE 15.1 km/h 20.1 km/h 37% 0 mm 660.54 W/m2
14:19 37 °C 19 °C 1005 hPa South 11.1 km/h 16.3 km/h 35% 0 mm 651.17 W/m2
14:24 36.6 °C 19.2 °C 1005.3 hPa SE 9.7 km/h 12.2 km/h 36% 0 mm 650.65 W/m2
14:29 36.7 °C 19.2 °C 1005 hPa SSE 5.5 km/h 7.9 km/h 36% 0 mm 648.38 W/m2
14:34 37 °C 19 °C 1005 hPa SSW 6.4 km/h 7.9 km/h 35% 0 mm 642.70 W/m2
14:39 37.5 °C 19.5 °C 1005.3 hPa SW 7.6 km/h 12.2 km/h 35% 0 mm 641.97 W/m2
14:44 38.3 °C 19.2 °C 1005 hPa SE 4 km/h 4 km/h 33% 0 mm 633.40 W/m2
14:49 37.1 °C 19.1 °C 1005 hPa WSW 12.6 km/h 16.3 km/h 35% 0 mm 625.43 W/m2
14:54 37.1 °C 19.1 °C 1005 hPa NE 7.2 km/h 7.9 km/h 35% 0 mm 620.70 W/m2
14:59 36.6 °C 18.7 °C 1005 hPa ESE 5.5 km/h 7.9 km/h 35% 0 mm 602.38 W/m2
15:04 37.2 °C 18.8 °C 1005 hPa SE 10.5 km/h 12.2 km/h 34% 0 mm 585.77 W/m2
15:09 37 °C 18.6 °C 1005 hPa East 13.7 km/h 20.1 km/h 34% 0 mm 585.18 W/m2
15:14 37.1 °C 18.2 °C 1004.6 hPa ENE 6.4 km/h 12.2 km/h 33% 0 mm 576.64 W/m2
15:19 36.9 °C 18.5 °C 1005 hPa NW 0.3 km/h 4 km/h 34% 0 mm 573.97 W/m2
15:24 37.2 °C 18.3 °C 1005 hPa NW 9.7 km/h 12.2 km/h 33% 0 mm 576.32 W/m2
15:29 37.4 °C 19.4 °C 1005 hPa NE 11.6 km/h 16.3 km/h 35% 0 mm 559.15 W/m2
15:34 36.3 °C 22.1 °C 1005 hPa North 5 km/h 12.2 km/h 44% 0 mm 540.45 W/m2
15:39 35.4 °C 19.4 °C 1005 hPa SE 13.7 km/h 16.3 km/h 39% 0 mm 520.61 W/m2
15:44 36.4 °C 19 °C 1005 hPa NE 3.5 km/h 7.9 km/h 36% 0 mm 512.05 W/m2
15:49 37.2 °C 19.2 °C 1005 hPa SW 2.1 km/h 4 km/h 35% 0 mm 520.00 W/m2
15:54 37.1 °C 19.1 °C 1005 hPa South 4.7 km/h 7.9 km/h 35% 0 mm 522.76 W/m2
15:59 36.9 °C 19.4 °C 1005 hPa SE 5 km/h 7.9 km/h 36% 0 mm 513.98 W/m2
16:04 36.2 °C 19.7 °C 1005 hPa SE 12.6 km/h 16.3 km/h 38% 0 mm 500.35 W/m2
16:09 35.7 °C 19.6 °C 1004.6 hPa SE 6.1 km/h 7.9 km/h 39% 0 mm 477.13 W/m2
16:14 36.4 °C 19.9 °C 1005 hPa SE 12.6 km/h 20.1 km/h 38% 0 mm 460.57 W/m2
16:19 36.3 °C 19.8 °C 1005 hPa SE 4.7 km/h 7.9 km/h 38% 0 mm 448.24 W/m2
16:24 36.7 °C 20.1 °C 1005 hPa ENE 4 km/h 7.9 km/h 38% 0 mm 434.56 W/m2
16:29 36.2 °C 20.1 °C 1005 hPa NE 4.7 km/h 7.9 km/h 39% 0 mm 419.63 W/m2
16:34 36.4 °C 20.3 °C 1005 hPa SE 2.9 km/h 4 km/h 39% 0 mm 400.65 W/m2
16:39 35.8 °C 20.1 °C 1005 hPa NNW 4 km/h 7.9 km/h 40% 0 mm 323.31 W/m2
16:44 35.5 °C 19.9 °C 1005 hPa NW 4.7 km/h 7.9 km/h 40% 0 mm 194.04 W/m2
16:49 35.2 °C 20 °C 1005 hPa SE 3.5 km/h 7.9 km/h 41% 0 mm 334.44 W/m2
16:54 34.8 °C 20 °C 1005 hPa SE 15.4 km/h 24.1 km/h 42% 0 mm 306.10 W/m2
16:59 34.8 °C 20 °C 1005.3 hPa SSE 2.1 km/h 4 km/h 42% 0 mm 283.30 W/m2
17:04 34.6 °C 20.2 °C 1005.3 hPa SSE 7.9 km/h 12.2 km/h 43% 0 mm 257.44 W/m2
17:09 34 °C 20.4 °C 1005.3 hPa East 15.1 km/h 24.1 km/h 45% 0 mm 208.80 W/m2
17:14 33.5 °C 20.7 °C 1005.3 hPa East 10.1 km/h 12.2 km/h 47% 0 mm 84.24 W/m2
17:19 33.3 °C 20.8 °C 1005.3 hPa East 12.2 km/h 16.3 km/h 48% 0 mm 80.61 W/m2
17:24 33.4 °C 20.9 °C 1005.3 hPa East 9.7 km/h 12.2 km/h 48% 0 mm 70.07 W/m2
17:29 33.3 °C 20.8 °C 1005.6 hPa South 3.5 km/h 4 km/h 48% 0 mm 62.10 W/m2
17:34 33.4 °C 20.9 °C 1005.3 hPa SE 9 km/h 12.2 km/h 48% 0 mm 52.87 W/m2
17:39 33.1 °C 21 °C 1005.3 hPa SE 6.4 km/h 7.9 km/h 49% 0 mm 43.35 W/m2
17:44 33 °C 20.9 °C 1005.6 hPa South 7.2 km/h 12.2 km/h 49% 0 mm 35.58 W/m2
17:49 33 °C 20.9 °C 1005.6 hPa ESE 5 km/h 7.9 km/h 49% 0 mm 28.69 W/m2
17:54 33 °C 20.9 °C 1006 hPa SSE 6.1 km/h 7.9 km/h 49% 0 mm 21.66 W/m2
17:59 32.9 °C 20.8 °C 1006 hPa SSW 3.5 km/h 12.2 km/h 49% 0 mm 15.87 W/m2
18:04 32.8 °C 21 °C 1006 hPa NNE 7.9 km/h 12.2 km/h 50% 0 mm 8.41 W/m2
18:09 32.7 °C 20.9 °C 1006 hPa East 6.1 km/h 12.2 km/h 50% 0 mm 4.09 W/m2
18:14 32.7 °C 20.9 °C 1006 hPa North 6.1 km/h 7.9 km/h 50% 0 mm 0.77 W/m2
18:19 32.6 °C 20.9 °C 1006 hPa SSE 2.1 km/h 4 km/h 50% 0 mm 0.00 W/m2
PIMOHWEATHER Philippines
Compliments of Weather Underground - 2 mb
www.000webhost.com